Time;durP1;ratioP1;P1;durP2;ratioP2;P2;SDS_P1;SDS_P2;PMS_P1;PMS_P2;Temp;Humidity;BMP_temperature;BMP_pressure;BME280_temperature;BME280_humidity;BME280_pressure;Samples;Min_cycle;Max_cycle;Signal;HPM_P1;HPM_P2
2022/03/06 00:00:41;;;;;;;27.10;14.27;;;22.70;37.30;;;;;;6131430;28;85477;-63
2022/03/06 00:03:42;;;;;;;23.15;13.88;;;22.70;37.40;;;;;;6124938;28;83348;-64
2022/03/06 00:06:42;;;;;;;23.02;12.45;;;22.70;37.50;;;;;;6131803;28;82931;-65
2022/03/06 00:09:43;;;;;;;20.77;12.27;;;22.70;37.80;;;;;;6136027;28;83320;-65
2022/03/06 00:12:43;;;;;;;23.75;13.20;;;22.70;37.90;;;;;;6134831;28;83234;-64
2022/03/06 00:15:44;;;;;;;21.33;12.18;;;22.70;37.80;;;;;;6133129;28;83122;-65
2022/03/06 00:18:44;;;;;;;24.52;13.23;;;22.70;38.00;;;;;;6130191;28;85847;-64
2022/03/06 00:21:45;;;;;;;24.70;13.85;;;22.60;37.60;;;;;;6132573;28;83225;-63
2022/03/06 00:24:45;;;;;;;20.17;11.57;;;22.60;37.50;;;;;;6132080;28;83231;-65
2022/03/06 00:27:46;;;;;;;22.52;12.60;;;22.60;37.60;;;;;;6131928;28;84064;-65
2022/03/06 00:30:46;;;;;;;21.45;13.05;;;22.60;38.20;;;;;;6133306;28;82939;-65
2022/03/06 00:33:47;;;;;;;24.67;13.55;;;22.60;37.60;;;;;;6131059;28;83210;-65
2022/03/06 00:36:47;;;;;;;19.70;11.75;;;22.60;37.60;;;;;;6132490;28;84605;-64
2022/03/06 00:39:48;;;;;;;21.67;11.35;;;22.60;37.70;;;;;;6142244;28;84784;-64
2022/03/06 00:42:48;;;;;;;23.00;11.85;;;22.60;37.70;;;;;;6144698;28;82861;-64
2022/03/06 00:45:49;;;;;;;20.27;12.27;;;22.60;37.60;;;;;;6140772;28;82925;-64
2022/03/06 00:48:49;;;;;;;19.60;12.05;;;22.60;37.70;;;;;;6141456;28;84521;-65
2022/03/06 00:51:50;;;;;;;19.38;11.50;;;22.60;37.60;;;;;;6137001;28;83435;-65
2022/03/06 00:54:50;;;;;;;22.17;12.25;;;22.60;38.30;;;;;;6128829;28;84461;-65
2022/03/06 00:57:51;;;;;;;23.30;12.15;;;22.60;37.60;;;;;;6129115;28;83558;-65
2022/03/06 01:00:51;;;;;;;21.65;12.07;;;22.60;37.80;;;;;;6130372;28;82778;-65
2022/03/06 01:03:52;;;;;;;19.40;12.02;;;22.60;37.80;;;;;;6129438;28;83301;-64
2022/03/06 01:06:53;;;;;;;19.85;11.85;;;22.60;37.80;;;;;;6141171;28;82967;-65
2022/03/06 01:09:53;;;;;;;22.05;11.32;;;22.60;37.70;;;;;;6144252;28;83619;-65
2022/03/06 01:12:54;;;;;;;21.55;12.18;;;22.60;37.80;;;;;;6138505;28;83838;-66
2022/03/06 01:15:54;;;;;;;20.92;11.50;;;22.50;37.70;;;;;;6130226;28;83260;-65
2022/03/06 01:18:55;;;;;;;20.45;11.80;;;22.60;37.80;;;;;;6138826;28;84088;-65
2022/03/06 01:21:55;;;;;;;21.30;12.32;;;22.50;38.40;;;;;;6121559;28;84488;-65
2022/03/06 01:24:56;;;;;;;18.58;10.48;;;22.50;37.80;;;;;;6130692;28;84075;-63
2022/03/06 01:27:56;;;;;;;19.45;11.68;;;22.50;37.90;;;;;;6130769;28;84130;-65
2022/03/06 01:30:57;;;;;;;22.73;11.27;;;22.60;37.90;;;;;;6129870;28;84145;-65
2022/03/06 01:33:57;;;;;;;21.88;12.57;;;22.50;38.50;;;;;;6133946;28;85834;-65
2022/03/06 01:36:58;;;;;;;18.40;11.43;;;22.50;38.00;;;;;;6130996;28;83044;-65
2022/03/06 01:39:58;;;;;;;19.05;11.35;;;22.60;38.00;;;;;;6129014;28;83436;-65
2022/03/06 01:42:58;;;;;;;20.55;12.25;;;22.50;38.00;;;;;;6135634;28;83080;-65
2022/03/06 01:45:59;;;;;;;21.25;11.60;;;22.50;38.10;;;;;;6131138;28;85708;-65
2022/03/06 01:48:59;;;;;;;19.00;10.68;;;22.50;38.10;;;;;;6141994;28;83611;-65
2022/03/06 01:52:00;;;;;;;25.20;12.77;;;22.50;38.10;;;;;;6129532;28;83515;-65
2022/03/06 01:55:00;;;;;;;20.27;12.43;;;22.50;38.00;;;;;;6128114;28;83131;-65
2022/03/06 01:58:01;;;;;;;21.35;12.02;;;22.50;37.90;;;;;;6130588;28;83574;-66
2022/03/06 02:01:01;;;;;;;22.23;11.45;;;22.50;37.80;;;;;;6135679;28;84136;-65
2022/03/06 02:04:02;;;;;;;23.20;12.15;;;22.50;37.90;;;;;;6138762;28;86471;-66
2022/03/06 02:07:02;;;;;;;23.65;11.77;;;22.50;37.90;;;;;;6131174;28;83171;-65
2022/03/06 02:10:03;;;;;;;21.73;12.43;;;22.50;37.90;;;;;;6133194;28;82951;-65
2022/03/06 02:13:03;;;;;;;22.60;12.75;;;22.50;37.90;;;;;;6129651;28;83310;-68
2022/03/06 02:16:05;;;;;;;20.83;11.52;;;22.50;37.90;;;;;;6113973;28;84909;-65
2022/03/06 02:19:05;;;;;;;19.77;11.10;;;22.50;37.90;;;;;;6119420;28;82941;-66
2022/03/06 02:22:06;;;;;;;19.83;11.38;;;22.50;37.90;;;;;;6147295;28;83310;-66
2022/03/06 02:25:06;;;;;;;18.88;11.10;;;22.50;38.10;;;;;;6130876;28;82928;-66
2022/03/06 02:28:07;;;;;;;20.75;11.45;;;22.50;38.10;;;;;;6132655;28;83201;-65
2022/03/06 02:31:07;;;;;;;20.00;10.80;;;22.50;38.10;;;;;;6130473;28;82973;-65
2022/03/06 02:34:08;;;;;;;19.80;11.07;;;22.50;38.20;;;;;;6136469;28;83364;-66
2022/03/06 02:37:08;;;;;;;19.23;11.25;;;22.50;38.10;;;;;;6135053;28;83373;-66
2022/03/06 02:40:09;;;;;;;18.65;11.55;;;22.50;38.00;;;;;;6123204;28;82841;-66
2022/03/06 02:43:09;;;;;;;17.60;10.70;;;22.50;38.10;;;;;;6133783;28;83402;-66
2022/03/06 02:46:10;;;;;;;17.80;10.30;;;22.50;38.10;;;;;;6131000;28;83933;-66
2022/03/06 02:49:12;;;;;;;20.42;10.65;;;22.50;38.10;;;;;;6127328;28;83096;-66
2022/03/06 02:52:13;;;;;;;18.48;10.98;;;22.40;38.30;;;;;;6134930;28;82794;-65
2022/03/06 02:55:13;;;;;;;17.67;11.38;;;22.50;38.30;;;;;;6134633;28;83380;-66
2022/03/06 02:58:14;;;;;;;17.05;10.77;;;22.40;38.40;;;;;;6133715;28;85360;-67
2022/03/06 03:01:14;;;;;;;21.38;11.45;;;22.50;38.90;;;;;;6133482;28;83370;-66
2022/03/06 03:04:15;;;;;;;21.17;11.00;;;22.40;38.40;;;;;;6140407;28;84961;-66
2022/03/06 03:07:15;;;;;;;20.30;11.35;;;22.40;38.40;;;;;;6134850;28;83529;-67
2022/03/06 03:10:16;;;;;;;19.45;11.07;;;22.40;38.30;;;;;;6133249;28;83045;-66
2022/03/06 03:13:16;;;;;;;22.02;10.38;;;22.40;38.30;;;;;;6132276;28;83231;-66
2022/03/06 03:16:17;;;;;;;20.77;11.95;;;22.40;38.40;;;;;;6132460;28;84285;-66
2022/03/06 03:19:20;;;;;;;20.63;11.30;;;22.50;38.40;;;;;;6135049;28;83068;-67
2022/03/06 03:22:21;;;;;;;19.75;10.98;;;22.40;38.40;;;;;;6132272;28;83430;-66
2022/03/06 03:25:21;;;;;;;19.38;11.27;;;22.40;38.30;;;;;;6133241;28;83915;-65
2022/03/06 03:28:22;;;;;;;18.95;11.38;;;22.40;38.20;;;;;;6133408;28;83374;-65
2022/03/06 03:31:23;;;;;;;19.02;11.20;;;22.40;38.10;;;;;;6132655;28;82790;-65
2022/03/06 03:34:23;;;;;;;18.13;10.68;;;22.40;38.30;;;;;;6131796;28;83648;-65
2022/03/06 03:37:24;;;;;;;19.10;10.50;;;22.40;38.30;;;;;;6142353;28;83442;-66
2022/03/06 03:40:24;;;;;;;20.27;11.52;;;22.40;38.20;;;;;;6135479;28;83523;-65
2022/03/06 03:43:25;;;;;;;17.88;10.95;;;22.40;38.30;;;;;;6146527;28;84287;-65
2022/03/06 03:46:25;;;;;;;19.52;10.55;;;22.40;38.20;;;;;;6130754;28;83010;-65
2022/03/06 03:49:26;;;;;;;18.83;11.57;;;22.40;39.00;;;;;;6133496;28;82906;-65
2022/03/06 03:52:26;;;;;;;19.30;10.30;;;22.40;38.30;;;;;;6133679;28;83004;-65
2022/03/06 03:55:27;;;;;;;18.85;10.63;;;22.40;38.40;;;;;;6115933;28;83199;-65
2022/03/06 03:58:27;;;;;;;19.40;10.73;;;22.40;38.50;;;;;;6130689;28;83148;-65
2022/03/06 04:01:28;;;;;;;20.13;10.75;;;22.40;38.50;;;;;;6133468;28;83135;-64
2022/03/06 04:04:28;;;;;;;18.00;10.18;;;22.40;38.40;;;;;;6132460;28;83002;-66
2022/03/06 04:07:29;;;;;;;21.73;11.48;;;22.40;38.30;;;;;;6128184;28;84065;-64
2022/03/06 04:10:29;;;;;;;16.98;9.82;;;22.40;38.10;;;;;;6131484;28;82798;-64
2022/03/06 04:13:30;;;;;;;16.80;9.93;;;22.40;38.20;;;;;;6140634;28;83582;-64
2022/03/06 04:16:30;;;;;;;20.85;11.07;;;22.40;37.70;;;;;;6141749;28;80242;-64
2022/03/06 04:19:31;;;;;;;21.20;11.77;;;22.40;38.40;;;;;;6133297;28;83414;-64
2022/03/06 04:22:31;;;;;;;17.17;10.60;;;22.40;37.30;;;;;;6132943;28;83085;-64
2022/03/06 04:25:32;;;;;;;24.67;12.57;;;22.50;36.70;;;;;;6132352;28;84000;-64
2022/03/06 04:28:32;;;;;;;20.17;11.82;;;22.60;36.50;;;;;;6131453;28;83457;-63
2022/03/06 04:31:33;;;;;;;22.60;11.98;;;22.60;36.30;;;;;;6122458;28;83149;-63
2022/03/06 04:34:33;;;;;;;21.92;11.10;;;22.70;36.20;;;;;;6130703;28;83579;-63
2022/03/06 04:37:34;;;;;;;18.70;11.38;;;22.70;36.20;;;;;;6130252;28;83017;-64
2022/03/06 04:40:34;;;;;;;18.90;10.90;;;22.70;36.10;;;;;;6131406;28;86051;-64
2022/03/06 04:43:35;;;;;;;17.60;9.93;;;22.80;36.10;;;;;;6137109;28;83186;-65
2022/03/06 04:46:35;;;;;;;16.83;10.63;;;22.80;36.10;;;;;;6123156;28;83049;-64
2022/03/06 04:49:36;;;;;;;18.75;11.45;;;22.80;36.10;;;;;;6122098;28;82662;-65
2022/03/06 04:52:36;;;;;;;18.13;10.35;;;22.90;36.10;;;;;;6135065;28;82918;-65
2022/03/06 04:55:37;;;;;;;25.10;11.18;;;22.90;36.00;;;;;;6139335;28;83596;-65
2022/03/06 04:58:37;;;;;;;19.25;11.07;;;22.90;35.80;;;;;;6140442;28;83476;-65
2022/03/06 05:01:38;;;;;;;17.30;10.13;;;22.90;35.70;;;;;;6133018;28;83760;-65
2022/03/06 05:04:38;;;;;;;17.10;10.10;;;22.90;35.60;;;;;;6132073;28;83311;-66
2022/03/06 05:07:39;;;;;;;16.80;10.63;;;23.00;35.70;;;;;;6132219;28;83498;-66
2022/03/06 05:10:39;;;;;;;17.33;11.02;;;23.00;35.60;;;;;;6144092;28;83060;-66
2022/03/06 05:13:40;;;;;;;18.77;11.10;;;23.00;35.50;;;;;;6131084;28;84078;-66
2022/03/06 05:16:40;;;;;;;18.23;11.32;;;23.00;35.40;;;;;;6132238;28;82649;-66
2022/03/06 05:19:41;;;;;;;19.30;11.27;;;23.00;35.40;;;;;;6129821;28;83251;-66
2022/03/06 05:22:41;;;;;;;21.23;12.05;;;23.10;35.40;;;;;;6132993;28;82983;-64
2022/03/06 05:25:42;;;;;;;18.70;11.05;;;23.10;35.40;;;;;;6130496;28;84029;-63
2022/03/06 05:28:43;;;;;;;18.42;10.27;;;23.10;35.50;;;;;;6139669;28;83031;-64
2022/03/06 05:31:43;;;;;;;17.05;10.35;;;23.20;35.90;;;;;;6140380;28;84058;-64
2022/03/06 05:34:44;;;;;;;18.02;10.38;;;23.10;36.00;;;;;;6141208;28;83271;-64
2022/03/06 05:37:44;;;;;;;17.67;10.50;;;23.20;36.10;;;;;;6133085;28;83991;-63
2022/03/06 05:40:45;;;;;;;23.58;10.88;;;23.20;36.10;;;;;;6143918;28;82733;-63
2022/03/06 05:43:46;;;;;;;17.67;10.35;;;23.20;35.80;;;;;;6128775;28;83110;-64
2022/03/06 05:46:46;;;;;;;16.70;9.70;;;23.20;36.00;;;;;;6129925;28;84117;-64
2022/03/06 05:49:47;;;;;;;13.75;8.93;;;23.20;36.00;;;;;;6130755;28;84277;-65
2022/03/06 05:52:48;;;;;;;16.90;10.07;;;23.20;36.20;;;;;;6125030;28;80472;-65
2022/03/06 05:55:49;;;;;;;15.90;9.43;;;23.30;36.30;;;;;;6127544;28;82810;-63
2022/03/06 05:58:49;;;;;;;22.08;9.77;;;23.30;36.40;;;;;;6130052;28;84409;-66
2022/03/06 06:01:50;;;;;;;13.38;8.35;;;23.30;36.60;;;;;;6134387;28;81194;-60
2022/03/06 06:04:50;;;;;;;15.23;9.05;;;23.30;36.30;;;;;;6132903;28;81910;-65
2022/03/06 06:07:51;;;;;;;13.38;8.85;;;23.30;36.00;;;;;;6139378;28;80080;-65
2022/03/06 06:10:52;;;;;;;13.27;8.57;;;23.30;36.30;;;;;;6128972;28;86177;-70
2022/03/06 06:13:52;;;;;;;15.32;9.45;;;23.30;36.30;;;;;;6112117;28;80530;-68
2022/03/06 06:16:53;;;;;;;28.42;9.02;;;23.30;36.30;;;;;;6134528;28;80601;-69
2022/03/06 06:19:53;;;;;;;16.27;8.98;;;23.30;36.20;;;;;;6128200;28;81035;-69
2022/03/06 06:22:54;;;;;;;14.18;8.07;;;23.20;36.10;;;;;;6124496;28;81561;-68
2022/03/06 06:25:54;;;;;;;13.70;8.23;;;23.20;36.00;;;;;;6114179;28;80400;-68
2022/03/06 06:28:56;;;;;;;21.02;7.78;;;23.20;36.80;;;;;;6125123;28;81173;-67
2022/03/06 06:31:57;;;;;;;18.27;9.10;;;23.20;36.70;;;;;;6136289;28;82862;-62
2022/03/06 06:34:57;;;;;;;19.00;8.88;;;23.20;36.70;;;;;;6136484;28;80694;-68
2022/03/06 06:37:57;;;;;;;19.15;9.13;;;23.20;37.90;;;;;;6138607;28;80393;-68
2022/03/06 06:40:58;;;;;;;17.98;8.77;;;23.20;38.10;;;;;;6126734;28;80508;-67
2022/03/06 06:43:59;;;;;;;15.85;8.05;;;23.20;39.00;;;;;;6135227;28;80702;-68
2022/03/06 06:46:59;;;;;;;13.57;7.32;;;23.20;38.60;;;;;;6137801;28;82435;-64
2022/03/06 06:50:01;;;;;;;16.73;8.18;;;23.10;38.50;;;;;;6135373;28;80486;-67
2022/03/06 06:53:02;;;;;;;13.93;8.20;;;23.10;38.80;;;;;;6128472;28;80783;-67
2022/03/06 06:56:02;;;;;;;12.68;7.72;;;23.10;39.00;;;;;;6129684;28;80437;-67
2022/03/06 06:59:03;;;;;;;16.25;8.48;;;23.10;39.00;;;;;;6136149;28;80945;-65
2022/03/06 07:02:03;;;;;;;18.33;8.05;;;23.10;38.60;;;;;;6142996;28;80705;-68
2022/03/06 07:05:04;;;;;;;12.80;8.27;;;23.10;38.40;;;;;;6135639;28;80552;-69
2022/03/06 07:08:04;;;;;;;17.58;8.35;;;23.10;38.30;;;;;;6138840;28;80842;-69
2022/03/06 07:11:05;;;;;;;18.65;7.97;;;23.10;38.60;;;;;;6134232;28;81547;-69
2022/03/06 07:14:05;;;;;;;17.33;7.65;;;23.10;39.10;;;;;;6133652;28;82076;-66
2022/03/06 07:17:06;;;;;;;13.93;7.53;;;23.10;38.80;;;;;;6136602;28;80724;-68
2022/03/06 07:20:06;;;;;;;13.32;7.40;;;23.10;39.10;;;;;;6137113;28;80173;-67
2022/03/06 07:23:07;;;;;;;17.08;7.30;;;23.10;38.80;;;;;;6140664;28;82071;-67
2022/03/06 07:26:08;;;;;;;12.52;7.32;;;23.10;39.10;;;;;;6136584;28;80446;-65
2022/03/06 07:29:08;;;;;;;13.50;7.05;;;23.10;38.30;;;;;;6135398;28;80631;-67
2022/03/06 07:32:09;;;;;;;18.23;8.18;;;23.10;38.50;;;;;;6134387;28;80420;-65
2022/03/06 07:35:09;;;;;;;14.27;7.18;;;23.10;38.60;;;;;;6138231;28;81342;-65
2022/03/06 07:38:10;;;;;;;11.85;6.53;;;23.10;39.10;;;;;;6137050;28;80387;-68
2022/03/06 07:41:11;;;;;;;9.75;5.68;;;23.00;38.20;;;;;;6136430;28;80565;-68
2022/03/06 07:44:11;;;;;;;9.30;5.68;;;23.10;38.30;;;;;;6135222;28;80155;-65
2022/03/06 07:47:12;;;;;;;8.82;5.60;;;23.30;38.30;;;;;;6133381;28;81098;-68
2022/03/06 07:50:12;;;;;;;12.30;6.40;;;23.30;38.60;;;;;;6134547;28;80134;-69
2022/03/06 07:53:13;;;;;;;8.60;5.50;;;23.20;38.50;;;;;;6135165;28;80765;-70
2022/03/06 07:56:13;;;;;;;11.63;5.65;;;23.20;38.20;;;;;;6129300;28;80734;-69
2022/03/06 07:59:14;;;;;;;9.40;5.05;;;23.20;38.10;;;;;;6129439;28;80394;-70
2022/03/06 08:02:15;;;;;;;9.38;5.57;;;23.20;38.00;;;;;;6130631;28;81219;-68
2022/03/06 08:05:15;;;;;;;8.02;4.60;;;23.20;38.10;;;;;;6127534;28;80947;-68
2022/03/06 08:08:16;;;;;;;8.35;4.93;;;23.20;37.80;;;;;;6131151;28;80154;-70
2022/03/06 08:11:16;;;;;;;6.35;3.88;;;23.20;37.90;;;;;;6129313;28;80712;-70
2022/03/06 08:14:17;;;;;;;7.50;4.32;;;23.20;37.80;;;;;;6130096;28;80662;-66
2022/03/06 08:17:17;;;;;;;6.30;4.28;;;23.30;37.70;;;;;;6132794;28;81503;-68
2022/03/06 08:20:18;;;;;;;9.40;5.15;;;23.30;37.50;;;;;;6128840;28;85997;-66
2022/03/06 08:23:18;;;;;;;11.90;5.05;;;23.30;37.50;;;;;;6122829;28;80424;-66
2022/03/06 08:26:19;;;;;;;7.05;4.20;;;23.30;37.50;;;;;;6131172;28;81456;-68
2022/03/06 08:29:19;;;;;;;13.18;4.57;;;23.30;37.80;;;;;;6127752;28;80860;-67
2022/03/06 08:32:20;;;;;;;7.55;5.15;;;23.20;37.40;;;;;;6122064;28;80070;-68
2022/03/06 08:35:20;;;;;;;8.50;4.57;;;23.20;36.80;;;;;;6132521;28;80229;-65
2022/03/06 08:38:21;;;;;;;15.52;5.05;;;23.20;36.90;;;;;;6132413;28;81213;-72
2022/03/06 08:41:21;;;;;;;9.85;5.25;;;23.20;36.60;;;;;;6124807;28;81316;-70
2022/03/06 08:44:22;;;;;;;9.88;5.13;;;23.10;36.80;;;;;;6131858;28;81691;-62
2022/03/06 08:47:23;;;;;;;7.45;4.15;;;23.10;37.20;;;;;;6132015;28;86125;-61
2022/03/06 08:50:23;;;;;;;13.02;5.50;;;23.10;36.60;;;;;;6133589;28;81676;-63
2022/03/06 08:53:24;;;;;;;9.07;5.13;;;23.10;36.30;;;;;;6134499;28;81636;-63
2022/03/06 08:56:24;;;;;;;11.30;5.63;;;23.10;36.30;;;;;;6130461;28;80888;-74
2022/03/06 08:59:25;;;;;;;11.60;5.10;;;23.00;36.90;;;;;;6114149;28;83676;-67
2022/03/06 09:02:25;;;;;;;10.70;4.65;;;23.00;37.50;;;;;;6127749;28;80701;-72
2022/03/06 09:05:26;;;;;;;13.40;4.80;;;23.00;37.80;;;;;;6118944;28;81157;-68
2022/03/06 09:08:26;;;;;;;12.48;4.28;;;23.10;37.80;;;;;;6119297;28;81503;-68
2022/03/06 09:11:27;;;;;;;8.52;4.45;;;23.10;37.60;;;;;;6120914;28;84426;-68
2022/03/06 09:14:27;;;;;;;6.95;4.32;;;23.10;37.90;;;;;;6117362;28;81536;-68
2022/03/06 09:17:28;;;;;;;7.53;3.92;;;23.10;37.40;;;;;;6115621;28;81974;-68
2022/03/06 09:20:28;;;;;;;7.10;3.80;;;23.10;37.30;;;;;;6116919;28;80867;-70
2022/03/06 09:23:29;;;;;;;6.47;4.18;;;23.10;37.40;;;;;;6122141;28;81373;-72
2022/03/06 09:26:30;;;;;;;5.80;4.10;;;23.10;37.00;;;;;;6123379;28;80968;-69
2022/03/06 09:29:30;;;;;;;7.30;3.85;;;23.00;37.10;;;;;;6120977;28;80489;-68
2022/03/06 09:32:31;;;;;;;7.38;4.10;;;23.00;36.80;;;;;;6121664;28;80598;-68
2022/03/06 09:35:31;;;;;;;6.75;3.70;;;23.10;36.70;;;;;;6121022;28;81818;-68
2022/03/06 09:38:32;;;;;;;8.00;3.88;;;23.10;36.50;;;;;;6120437;28;80754;-69
2022/03/06 09:41:32;;;;;;;8.35;3.75;;;23.00;36.70;;;;;;6119623;28;80354;-68
2022/03/06 09:44:36;;;;;;;45.50;22.38;;;23.00;36.40;;;;;;6116884;28;80951;-68
2022/03/06 09:47:36;;;;;;;101.88;49.13;;;23.00;36.40;;;;;;6114861;28;83176;-68
2022/03/06 09:50:37;;;;;;;171.10;84.25;;;23.00;36.40;;;;;;6113774;28;83535;-70
2022/03/06 09:53:37;;;;;;;220.73;103.82;;;23.00;36.60;;;;;;6112607;28;84569;-68
2022/03/06 09:56:38;;;;;;;307.80;141.65;;;23.00;36.50;;;;;;6108172;28;86019;-69
2022/03/06 09:59:39;;;;;;;280.15;132.13;;;23.00;36.40;;;;;;6125380;28;86937;-70
2022/03/06 10:02:39;;;;;;;231.95;111.53;;;23.00;36.40;;;;;;6134774;28;85673;-69
2022/03/06 10:05:40;;;;;;;197.30;95.82;;;23.00;36.40;;;;;;6128275;28;85627;-70
2022/03/06 10:08:40;;;;;;;191.15;87.30;;;23.00;36.20;;;;;;6114430;28;85482;-64
2022/03/06 10:11:41;;;;;;;250.65;124.78;;;23.00;36.30;;;;;;6113079;28;84291;-64
2022/03/06 10:14:41;;;;;;;283.58;136.25;;;23.00;36.30;;;;;;6112157;28;85820;-63
2022/03/06 10:17:42;;;;;;;310.95;145.27;;;23.00;36.30;;;;;;6114993;28;85775;-64
2022/03/06 10:20:43;;;;;;;346.75;168.15;;;23.00;36.80;;;;;;6110040;28;92882;-64
2022/03/06 10:23:43;;;;;;;370.65;185.68;;;23.00;36.50;;;;;;6125117;28;87178;-62
2022/03/06 10:26:44;;;;;;;382.05;193.02;;;23.00;36.50;;;;;;6129923;28;85451;-62
2022/03/06 10:29:45;;;;;;;344.17;163.63;;;23.00;36.40;;;;;;6128059;28;85731;-63
2022/03/06 10:32:45;;;;;;;331.65;154.93;;;23.00;35.90;;;;;;6127610;28;86841;-63
2022/03/06 10:35:46;;;;;;;300.58;146.48;;;23.00;35.90;;;;;;6127584;28;85817;-65
2022/03/06 10:38:46;;;;;;;267.02;135.60;;;23.10;36.00;;;;;;6137562;28;85869;-63
2022/03/06 10:41:47;;;;;;;207.48;99.07;;;23.00;35.80;;;;;;6110506;28;85547;-63
2022/03/06 10:44:47;;;;;;;197.13;95.22;;;23.00;34.70;;;;;;6128875;28;84001;-62
2022/03/06 10:47:48;;;;;;;153.63;77.43;;;22.90;34.10;;;;;;6129948;28;83739;-70
2022/03/06 10:50:48;;;;;;;141.38;70.18;;;22.90;34.10;;;;;;6130020;28;83583;-70
2022/03/06 10:53:49;;;;;;;134.65;61.92;;;22.90;33.90;;;;;;6126078;28;83702;-70
2022/03/06 10:56:50;;;;;;;121.43;57.00;;;22.90;34.00;;;;;;6131675;28;83480;-64
2022/03/06 10:59:51;;;;;;;98.47;49.05;;;22.90;33.90;;;;;;6127556;28;83268;-64
2022/03/06 11:02:51;;;;;;;87.88;43.50;;;22.90;33.90;;;;;;6129520;28;83099;-63
2022/03/06 11:05:52;;;;;;;73.45;37.70;;;22.90;34.00;;;;;;6130085;28;83643;-68
2022/03/06 11:08:53;;;;;;;82.43;35.65;;;23.00;33.40;;;;;;6146792;28;83508;-69
2022/03/06 11:11:53;;;;;;;69.57;33.88;;;23.00;33.10;;;;;;6133301;28;84061;-69
2022/03/06 11:14:54;;;;;;;70.22;31.20;;;23.00;32.90;;;;;;6130627;28;82873;-69
2022/03/06 11:17:57;;;;;;;60.67;31.00;;;23.00;32.60;;;;;;6133015;28;83664;-70
2022/03/06 11:20:57;;;;;;;55.65;26.77;;;23.00;32.40;;;;;;6131954;28;83082;-69
2022/03/06 11:23:58;;;;;;;46.35;23.52;;;23.10;32.30;;;;;;6133950;28;83330;-72
2022/03/06 11:26:58;;;;;;;44.05;21.15;;;23.20;32.20;;;;;;6132067;28;83141;-63
2022/03/06 11:30:00;;;;;;;41.67;20.85;;;23.20;32.30;;;;;;6132156;28;83610;-69
2022/03/06 11:33:01;;;;;;;41.08;20.20;;;23.20;31.90;;;;;;6130415;28;83211;-69
2022/03/06 11:36:01;;;;;;;36.75;19.52;;;23.20;31.90;;;;;;6140474;28;83648;-70
2022/03/06 11:39:02;;;;;;;36.38;19.27;;;23.20;31.80;;;;;;6130938;28;83286;-71
2022/03/06 11:42:02;;;;;;;32.72;17.77;;;23.30;31.80;;;;;;6131655;28;85446;-69
2022/03/06 11:45:03;;;;;;;31.23;17.77;;;23.30;32.50;;;;;;6144831;28;83105;-70
2022/03/06 11:48:03;;;;;;;26.10;14.27;;;23.30;32.20;;;;;;6135883;28;84079;-69
2022/03/06 11:51:04;;;;;;;31.45;14.82;;;23.30;32.70;;;;;;6148669;28;83396;-68
2022/03/06 11:54:09;;;;;;;23.08;12.90;;;23.40;33.00;;;;;;6131278;28;83476;-67
2022/03/06 11:57:10;;;;;;;24.53;12.30;;;23.40;32.90;;;;;;6131010;28;83583;-66
2022/03/06 12:00:10;;;;;;;24.30;11.52;;;23.40;32.80;;;;;;6131493;28;83918;-66
2022/03/06 12:03:12;;;;;;;30.95;11.75;;;23.40;32.60;;;;;;6131312;28;83188;-68
2022/03/06 12:06:12;;;;;;;22.17;11.07;;;23.50;33.80;;;;;;6131494;28;84115;-67
2022/03/06 12:09:13;;;;;;;19.05;10.85;;;23.50;34.00;;;;;;6124027;28;85062;-66
2022/03/06 12:12:14;;;;;;;16.80;8.95;;;23.50;34.40;;;;;;6121826;28;83723;-66
2022/03/06 12:15:14;;;;;;;17.02;8.95;;;23.50;34.30;;;;;;6127862;28;83061;-66
2022/03/06 12:18:15;;;;;;;16.40;8.85;;;23.50;34.50;;;;;;6128127;28;80661;-67
2022/03/06 12:21:15;;;;;;;17.67;8.45;;;23.50;34.60;;;;;;6123876;28;80467;-68
2022/03/06 12:24:16;;;;;;;14.60;7.57;;;23.50;35.10;;;;;;6139621;28;81240;-66
2022/03/06 12:27:16;;;;;;;16.25;7.80;;;23.50;35.50;;;;;;6138972;28;80813;-68
2022/03/06 12:30:17;;;;;;;15.32;6.95;;;23.50;36.00;;;;;;6142148;28;80830;-68
2022/03/06 12:33:17;;;;;;;13.20;6.72;;;23.50;36.40;;;;;;6129675;28;80391;-68
2022/03/06 12:36:20;;;;;;;11.18;6.35;;;23.50;36.30;;;;;;6136552;28;82536;-68
2022/03/06 12:39:21;;;;;;;20.15;7.43;;;23.50;36.40;;;;;;6134065;28;80499;-69
2022/03/06 12:42:21;;;;;;;12.30;6.45;;;23.50;37.10;;;;;;6135531;28;81258;-70
2022/03/06 12:45:22;;;;;;;12.45;6.35;;;23.50;37.10;;;;;;6137314;28;80835;-68
2022/03/06 12:48:22;;;;;;;11.60;6.40;;;23.50;37.20;;;;;;6143875;28;80830;-68
2022/03/06 12:51:23;;;;;;;11.88;6.05;;;23.50;37.20;;;;;;6142436;28;82133;-65
2022/03/06 12:54:23;;;;;;;8.82;5.03;;;23.50;37.00;;;;;;6129751;28;80994;-67
2022/03/06 12:57:24;;;;;;;7.57;4.72;;;23.40;36.30;;;;;;6127429;28;81433;-68
2022/03/06 13:00:25;;;;;;;10.35;4.47;;;23.40;36.90;;;;;;6126680;28;80900;-69
2022/03/06 13:03:25;;;;;;;6.85;4.40;;;23.50;36.90;;;;;;6123235;28;81212;-69
2022/03/06 13:06:26;;;;;;;10.48;4.72;;;23.50;36.90;;;;;;6131109;28;80409;-69
2022/03/06 13:09:29;;;;;;;9.98;4.55;;;23.50;37.10;;;;;;6128951;28;80959;-67
2022/03/06 13:12:30;;;;;;;10.73;4.40;;;23.50;37.10;;;;;;6124758;28;81020;-69
2022/03/06 13:15:32;;;;;;;8.63;3.75;;;23.50;37.10;;;;;;6126146;28;80668;-68
2022/03/06 13:18:32;;;;;;;7.63;3.47;;;23.60;36.90;;;;;;6128270;28;80549;-67
2022/03/06 13:21:33;;;;;;;7.70;3.75;;;23.60;37.00;;;;;;6125854;28;80945;-67
2022/03/06 13:24:33;;;;;;;8.05;4.25;;;23.50;36.70;;;;;;6125073;28;80558;-66
2022/03/06 13:27:34;;;;;;;6.07;3.90;;;23.50;36.70;;;;;;6126700;28;81354;-66
2022/03/06 13:30:36;;;;;;;5.35;3.30;;;23.50;36.60;;;;;;6126525;28;80654;-67
2022/03/06 13:33:37;;;;;;;5.15;3.03;;;23.50;36.70;;;;;;6130628;28;81500;-66
2022/03/06 13:36:37;;;;;;;7.40;3.80;;;23.50;36.60;;;;;;6129167;28;80519;-66
2022/03/06 13:39:38;;;;;;;5.85;3.75;;;23.50;37.50;;;;;;6128704;28;81671;-67
2022/03/06 13:42:39;;;;;;;5.93;4.10;;;23.50;36.80;;;;;;6130880;28;80676;-67
2022/03/06 13:45:43;;;;;;;11.95;4.03;;;23.40;36.70;;;;;;6128601;28;80796;-61
2022/03/06 13:48:44;;;;;;;5.93;3.47;;;23.40;36.70;;;;;;6130305;28;81820;-60
2022/03/06 13:51:44;;;;;;;6.57;3.80;;;23.40;36.70;;;;;;6126903;28;81251;-66
2022/03/06 13:54:45;;;;;;;6.53;3.25;;;23.40;36.60;;;;;;6128198;28;80575;-62
2022/03/06 13:57:45;;;;;;;10.50;3.55;;;23.40;36.40;;;;;;6132500;28;80478;-67
2022/03/06 14:00:46;;;;;;;6.82;3.85;;;23.40;36.20;;;;;;6130986;28;84627;-65
2022/03/06 14:03:47;;;;;;;5.32;3.55;;;23.40;36.10;;;;;;6127934;28;80861;-65
2022/03/06 14:06:48;;;;;;;4.65;3.45;;;23.40;36.00;;;;;;6127167;28;80484;-68
2022/03/06 14:09:48;;;;;;;5.95;3.47;;;23.40;35.90;;;;;;6131161;28;81651;-66
2022/03/06 14:12:49;;;;;;;8.27;4.05;;;23.30;36.20;;;;;;6131881;28;81398;-67
2022/03/06 14:15:50;;;;;;;10.30;3.88;;;23.30;35.90;;;;;;6126633;28;80460;-68
2022/03/06 14:18:51;;;;;;;7.40;4.10;;;23.30;35.60;;;;;;6124971;28;80875;-69
2022/03/06 14:21:52;;;;;;;5.43;3.90;;;23.20;35.40;;;;;;6130494;28;80949;-69
2022/03/06 14:24:52;;;;;;;5.13;3.42;;;23.30;35.00;;;;;;6130461;28;80616;-69
2022/03/06 14:27:53;;;;;;;5.65;3.83;;;23.20;35.10;;;;;;6135276;28;84328;-73
2022/03/06 14:30:53;;;;;;;5.82;3.40;;;23.20;35.30;;;;;;6120321;28;80718;-70
2022/03/06 14:33:54;;;;;;;10.00;4.15;;;23.20;35.50;;;;;;6117032;28;80402;-68
2022/03/06 14:36:55;;;;;;;8.75;3.72;;;23.10;35.10;;;;;;6121363;28;80757;-70
2022/03/06 14:39:55;;;;;;;5.75;3.90;;;23.20;35.50;;;;;;6124778;28;81432;-70
2022/03/06 14:42:56;;;;;;;5.68;3.75;;;23.20;35.30;;;;;;6124733;28;81380;-69
2022/03/06 14:45:56;;;;;;;6.75;3.92;;;23.10;35.80;;;;;;6122744;28;80384;-69
2022/03/06 14:48:57;;;;;;;7.05;3.45;;;23.20;35.10;;;;;;6128233;28;81761;-70
2022/03/06 14:51:57;;;;;;;6.22;3.58;;;23.20;35.20;;;;;;6132728;28;81201;-69
2022/03/06 14:54:58;;;;;;;7.03;4.35;;;23.20;35.10;;;;;;6127444;28;82744;-70
2022/03/06 14:57:59;;;;;;;5.88;3.95;;;23.10;34.90;;;;;;6132101;28;80961;-72
2022/03/06 15:00:59;;;;;;;6.25;3.70;;;23.10;35.00;;;;;;6130265;28;81318;-70
2022/03/06 15:04:00;;;;;;;6.57;3.55;;;23.10;35.00;;;;;;6123399;28;80608;-69
2022/03/06 15:07:00;;;;;;;5.00;3.55;;;23.10;34.90;;;;;;6121675;28;80311;-69
2022/03/06 15:10:01;;;;;;;5.38;3.00;;;23.10;35.00;;;;;;6124633;28;81826;-68
2022/03/06 15:13:03;;;;;;;4.32;3.33;;;23.20;35.10;;;;;;6122842;28;80485;-71
2022/03/06 15:16:04;;;;;;;7.15;2.80;;;23.20;35.60;;;;;;6133786;28;81693;-68
2022/03/06 15:19:04;;;;;;;10.48;6.50;;;23.10;35.40;;;;;;6131132;28;80811;-71
2022/03/06 15:22:05;;;;;;;57.60;27.80;;;23.20;35.40;;;;;;6127007;28;80435;-71